createdAt,value
2023-02-19T00:00:00.647Z,13.03
2023-02-19T00:02:28.193Z,14.10
2023-02-19T00:04:55.663Z,13.47
2023-02-19T00:07:23.274Z,14.67
2023-02-19T00:09:50.689Z,16.43
2023-02-19T00:12:18.136Z,16.67
2023-02-19T00:14:45.549Z,17.33
2023-02-19T00:17:15.660Z,15.67
2023-02-19T00:19:43.222Z,18.70
2023-02-19T00:22:10.902Z,13.10
2023-02-19T00:24:38.397Z,13.90
2023-02-19T00:27:05.807Z,14.03
2023-02-19T00:29:36.368Z,12.50
2023-02-19T00:32:04.043Z,13.53
2023-02-19T00:34:31.538Z,12.23
2023-02-19T00:36:58.993Z,22.33
2023-02-19T00:39:26.603Z,12.77
2023-02-19T00:41:54.328Z,11.17
2023-02-19T00:44:21.990Z,11.97
2023-02-19T00:46:49.640Z,16.03
2023-02-19T00:49:22.352Z,13.77
2023-02-19T00:51:52.881Z,10.37
2023-02-19T00:54:22.608Z,19.63
2023-02-19T00:56:51.028Z,13.83
2023-02-19T00:59:18.653Z,11.77
2023-02-19T01:01:46.328Z,10.60
2023-02-19T01:04:14.008Z,12.50
2023-02-19T01:06:42.126Z,29.17
2023-02-19T01:09:09.717Z,30.30
2023-02-19T01:11:37.224Z,27.93
2023-02-19T01:14:05.145Z,23.20
2023-02-19T01:16:33.085Z,19.47
2023-02-19T01:19:00.782Z,20.97
2023-02-19T01:21:30.046Z,17.80
2023-02-19T01:23:59.737Z,14.37
2023-02-19T01:26:32.266Z,22.70
2023-02-19T01:29:01.269Z,16.60
2023-02-19T01:31:29.873Z,27.33
2023-02-19T01:34:01.283Z,26.03
2023-02-19T01:36:30.566Z,28.93
2023-02-19T01:39:04.073Z,29.53
2023-02-19T01:41:34.395Z,35.60
2023-02-19T01:44:04.901Z,26.43
2023-02-19T01:46:34.542Z,19.83
2023-02-19T01:49:19.291Z,23.93
2023-02-19T01:51:59.110Z,26.30
2023-02-19T01:54:31.239Z,28.97
2023-02-19T01:57:00.602Z,33.90
2023-02-19T01:59:28.256Z,34.23
2023-02-19T02:01:56.317Z,34.30
2023-02-19T02:04:24.331Z,51.97
2023-02-19T02:06:54.642Z,45.33
2023-02-19T02:09:47.977Z,50.83
2023-02-19T02:12:15.804Z,35.50
2023-02-19T02:14:46.879Z,32.80
2023-02-19T02:17:47.970Z,49.57
2023-02-19T02:20:15.410Z,44.87
2023-02-19T02:22:57.302Z,36.37
2023-02-19T02:26:02.235Z,58.23
2023-02-19T02:28:57.867Z,54.83
2023-02-19T02:31:45.700Z,48.87
2023-02-19T02:34:24.354Z,32.37
2023-02-19T02:36:56.182Z,29.70
2023-02-19T02:39:27.930Z,30.90
2023-02-19T02:42:17.794Z,32.07
2023-02-19T02:45:13.225Z,41.83
2023-02-19T02:47:54.184Z,35.63
2023-02-19T02:50:50.726Z,37.73
2023-02-19T02:53:48.379Z,38.00
2023-02-19T02:56:17.795Z,35.13
2023-02-19T02:58:47.984Z,36.50
2023-02-19T03:01:47.396Z,39.10
2023-02-19T03:04:33.143Z,37.10
2023-02-19T03:07:08.164Z,28.63
2023-02-19T03:09:43.236Z,18.13
2023-02-19T03:12:37.261Z,14.73
2023-02-19T03:15:30.334Z,16.03
2023-02-19T03:18:22.979Z,17.33
2023-02-19T03:20:55.259Z,19.90
2023-02-19T03:23:46.301Z,14.57
2023-02-19T03:26:15.747Z,17.40
2023-02-19T03:29:12.350Z,14.30
2023-02-19T03:31:44.730Z,12.63
2023-02-19T03:34:20.977Z,7.27
2023-02-19T03:37:17.167Z,10.47
2023-02-19T03:39:45.629Z,8.13
2023-02-19T03:42:31.761Z,11.50
2023-02-19T03:45:07.918Z,10.57
2023-02-19T03:48:09.153Z,12.47
2023-02-19T03:51:00.157Z,12.07
2023-02-19T03:53:35.882Z,9.93
2023-02-19T03:56:08.017Z,6.70
2023-02-19T03:59:02.290Z,8.37
2023-02-19T04:02:01.262Z,14.77
2023-02-19T04:04:49.753Z,5.43
2023-02-19T04:07:18.728Z,9.13
2023-02-19T04:09:50.190Z,18.40
2023-02-19T04:12:21.875Z,7.87
2023-02-19T04:15:06.396Z,8.87
2023-02-19T04:18:09.444Z,10.57
2023-02-19T04:20:44.402Z,6.80
2023-02-19T04:23:14.498Z,8.97
2023-02-19T04:25:46.912Z,10.97
2023-02-19T04:28:16.611Z,12.20
2023-02-19T04:30:44.420Z,12.57
2023-02-19T04:33:11.945Z,8.77
2023-02-19T04:35:39.452Z,10.13
2023-02-19T04:38:07.026Z,7.50
2023-02-19T04:40:54.758Z,9.50
2023-02-19T04:43:22.321Z,10.30
2023-02-19T04:45:52.607Z,9.57
2023-02-19T04:48:20.126Z,7.43
2023-02-19T04:50:47.725Z,9.50
2023-02-19T04:53:15.150Z,9.87
2023-02-19T04:55:42.702Z,14.73
2023-02-19T04:58:10.309Z,11.93
2023-02-19T05:00:37.810Z,11.10
2023-02-19T05:03:06.110Z,10.13
2023-02-19T05:05:33.546Z,13.30
2023-02-19T05:08:00.973Z,8.30
2023-02-19T05:10:28.586Z,8.00
2023-02-19T05:12:57.955Z,9.17
2023-02-19T05:15:25.568Z,7.97
2023-02-19T05:17:55.774Z,8.03
2023-02-19T05:20:23.243Z,7.80
2023-02-19T05:22:50.746Z,7.43
2023-02-19T05:25:18.395Z,11.17
2023-02-19T05:27:46.030Z,27.20
2023-02-19T05:30:13.987Z,30.17
2023-02-19T05:32:41.447Z,26.23
2023-02-19T05:35:09.006Z,13.80
2023-02-19T05:37:36.743Z,12.57
2023-02-19T05:40:04.655Z,9.60
2023-02-19T05:42:32.113Z,16.10
2023-02-19T05:44:59.601Z,13.90
2023-02-19T05:47:28.316Z,14.50
2023-02-19T05:49:55.782Z,10.60
2023-02-19T05:52:23.224Z,12.00
2023-02-19T05:54:50.665Z,10.47
2023-02-19T05:57:18.213Z,14.43
2023-02-19T05:59:45.716Z,48.20
2023-02-19T06:02:13.326Z,146.03
2023-02-19T06:04:40.860Z,43.33
2023-02-19T06:07:08.424Z,14.90
2023-02-19T06:09:35.919Z,15.50
2023-02-19T06:12:03.459Z,12.80
2023-02-19T06:14:30.889Z,15.73
2023-02-19T06:16:58.328Z,14.03
2023-02-19T06:19:28.328Z,12.07
2023-02-19T06:21:56.874Z,10.83
2023-02-19T06:24:24.392Z,9.57
2023-02-19T06:26:51.945Z,12.63
2023-02-19T06:29:19.489Z,13.33
2023-02-19T06:31:47.072Z,19.90
2023-02-19T06:34:14.652Z,23.13
2023-02-19T06:36:42.236Z,10.50
2023-02-19T06:39:10.769Z,7.90
2023-02-19T06:41:38.799Z,10.73
2023-02-19T06:44:06.262Z,10.63
2023-02-19T06:46:34.220Z,9.43
2023-02-19T06:49:03.912Z,13.93
2023-02-19T06:51:32.956Z,11.17
2023-02-19T06:54:02.427Z,9.30
2023-02-19T06:56:36.384Z,9.47
2023-02-19T06:59:10.279Z,9.20
2023-02-19T07:01:39.761Z,9.43
2023-02-19T07:04:08.310Z,12.33
2023-02-19T07:06:36.974Z,8.23
2023-02-19T07:09:06.758Z,11.33
2023-02-19T07:11:38.162Z,7.43
2023-02-19T07:14:08.767Z,7.57
2023-02-19T07:16:37.015Z,7.00
2023-02-19T07:19:04.767Z,9.93
2023-02-19T07:21:32.295Z,7.63
2023-02-19T07:24:00.220Z,5.93
2023-02-19T07:26:27.742Z,12.47
2023-02-19T07:28:55.483Z,9.77
2023-02-19T07:31:25.124Z,6.37
2023-02-19T07:33:52.951Z,7.50
2023-02-19T07:36:22.781Z,9.07
2023-02-19T07:38:58.523Z,7.73
2023-02-19T07:41:27.946Z,11.13
2023-02-19T07:43:59.187Z,10.67
2023-02-19T07:46:27.632Z,10.10
2023-02-19T07:48:55.103Z,11.07
2023-02-19T07:51:23.128Z,8.57
2023-02-19T07:53:51.510Z,10.23
2023-02-19T07:56:20.793Z,7.17
2023-02-19T07:58:48.313Z,10.23
2023-02-19T08:01:45.383Z,10.67
2023-02-19T08:04:15.113Z,11.53
2023-02-19T08:06:42.941Z,11.73
2023-02-19T08:09:11.280Z,16.60
2023-02-19T08:11:58.058Z,15.77
2023-02-19T08:14:29.160Z,14.20
2023-02-19T08:16:57.483Z,13.97
2023-02-19T08:19:25.440Z,6.93
2023-02-19T08:21:53.641Z,15.80
2023-02-19T08:24:21.300Z,13.03
2023-02-19T08:26:48.822Z,6.53
2023-02-19T08:29:18.753Z,10.57
2023-02-19T08:31:46.917Z,6.80
2023-02-19T08:34:14.417Z,9.70
2023-02-19T08:36:42.697Z,5.03
2023-02-19T08:39:11.284Z,5.77
2023-02-19T08:41:38.821Z,8.80
2023-02-19T08:44:06.263Z,11.43
2023-02-19T08:46:34.592Z,7.83
2023-02-19T08:49:02.642Z,9.53
2023-02-19T08:51:31.038Z,13.80
2023-02-19T08:53:59.557Z,11.33
2023-02-19T08:56:27.007Z,15.13
2023-02-19T08:58:54.577Z,16.17
2023-02-19T09:01:24.446Z,14.47
2023-02-19T09:03:56.973Z,7.80
2023-02-19T09:06:24.810Z,10.73
2023-02-19T09:08:53.607Z,9.37
2023-02-19T09:11:22.654Z,6.70
2023-02-19T09:13:50.127Z,17.73
2023-02-19T09:16:18.600Z,11.93
2023-02-19T09:18:46.518Z,17.83
2023-02-19T09:21:14.791Z,5.70
2023-02-19T09:23:42.423Z,13.33
2023-02-19T09:26:12.548Z,15.93
2023-02-19T09:28:41.960Z,7.87
2023-02-19T09:31:14.386Z,9.93
2023-02-19T09:33:47.037Z,8.30
2023-02-19T09:36:16.537Z,3.90
2023-02-19T09:38:44.194Z,6.20
2023-02-19T09:41:32.375Z,7.80
2023-02-19T09:44:04.460Z,6.77
2023-02-19T09:46:47.606Z,6.07
2023-02-19T09:49:26.051Z,4.03
2023-02-19T09:52:08.568Z,10.07
2023-02-19T09:54:39.368Z,6.13
2023-02-19T09:57:16.870Z,9.83
2023-02-19T09:59:50.665Z,11.70
2023-02-19T10:02:21.167Z,6.57
2023-02-19T10:04:53.895Z,4.67
2023-02-19T10:07:26.635Z,4.00
2023-02-19T10:10:02.894Z,3.50
2023-02-19T10:12:34.693Z,6.43
2023-02-19T10:15:35.008Z,4.47
2023-02-19T10:18:05.634Z,6.60
2023-02-19T10:20:33.450Z,4.47
2023-02-19T10:23:07.975Z,5.47
2023-02-19T10:25:37.984Z,4.57
2023-02-19T10:28:11.866Z,4.87
2023-02-19T10:30:39.478Z,4.67
2023-02-19T10:33:14.250Z,4.20
2023-02-19T10:35:56.489Z,3.20
2023-02-19T10:38:38.618Z,6.90
2023-02-19T10:41:17.574Z,4.63
2023-02-19T10:43:58.863Z,7.20
2023-02-19T10:46:30.137Z,4.27
2023-02-19T10:49:05.368Z,5.07
2023-02-19T10:51:37.319Z,5.30
2023-02-19T10:54:24.376Z,2.33
2023-02-19T10:56:51.919Z,3.50
2023-02-19T10:59:21.656Z,4.60
2023-02-19T11:02:00.214Z,4.03
2023-02-19T11:04:37.501Z,3.73
2023-02-19T11:07:19.641Z,3.23
2023-02-19T11:09:53.831Z,2.23
2023-02-19T11:12:31.141Z,6.50
2023-02-19T11:15:22.486Z,3.13
2023-02-19T11:18:16.900Z,3.90
2023-02-19T11:21:00.949Z,3.13
2023-02-19T11:23:38.416Z,3.20
2023-02-19T11:26:25.649Z,8.47
2023-02-19T11:29:01.318Z,3.53
2023-02-19T11:31:32.341Z,6.37
2023-02-19T11:34:29.269Z,4.93
2023-02-19T11:37:23.563Z,3.33
2023-02-19T11:39:52.523Z,3.03
2023-02-19T11:43:20.732Z,3.23
2023-02-19T11:46:21.476Z,3.67
2023-02-19T11:49:13.289Z,2.97
2023-02-19T11:51:51.616Z,3.17
2023-02-19T11:54:52.768Z,5.30
2023-02-19T11:57:42.880Z,4.37
2023-02-19T12:00:31.788Z,2.87
2023-02-19T12:03:20.051Z,2.93
2023-02-19T12:16:37.935Z,2.35
2023-02-19T12:22:35.433Z,8.80
2023-02-19T12:25:45.872Z,7.77
2023-02-19T12:28:41.156Z,5.83
2023-02-19T12:44:22.808Z,2.03
2023-02-19T12:46:57.266Z,1.85
2023-02-19T12:49:37.257Z,2.15
2023-02-19T12:52:19.676Z,2.90
2023-02-19T12:55:18.705Z,2.42
2023-02-19T12:57:50.155Z,1.63
2023-02-19T13:00:44.626Z,1.70
2023-02-19T13:03:38.231Z,1.98
2023-02-19T13:06:25.251Z,2.45
2023-02-19T13:09:12.720Z,2.30
2023-02-19T13:12:26.637Z,2.60
2023-02-19T13:15:15.326Z,1.90
2023-02-19T13:17:54.352Z,3.00
2023-02-19T13:20:39.353Z,1.58
2023-02-19T13:23:36.301Z,3.35
2023-02-19T13:26:32.491Z,1.60
2023-02-19T13:29:43.338Z,1.55
2023-02-19T13:33:03.064Z,3.15
2023-02-19T13:36:16.775Z,4.43
2023-02-19T13:38:49.237Z,3.75
2023-02-19T13:41:51.503Z,5.13
2023-02-19T13:44:43.115Z,2.15
2023-02-19T13:47:56.277Z,1.48
2023-02-19T13:50:29.412Z,3.17
2023-02-19T13:53:24.445Z,1.80
2023-02-19T13:55:53.940Z,6.28
2023-02-19T13:59:14.060Z,1.50
2023-02-19T14:01:58.379Z,3.78
2023-02-19T14:04:52.368Z,3.83
2023-02-19T14:07:19.890Z,2.38
2023-02-19T14:09:51.209Z,24.70
2023-02-19T14:12:24.680Z,10.50
2023-02-19T14:14:58.369Z,2.83
2023-02-19T14:17:45.787Z,2.38
2023-02-19T14:20:16.004Z,3.20
2023-02-19T14:22:46.324Z,3.30
2023-02-19T14:25:41.140Z,9.90
2023-02-19T14:28:30.770Z,2.50
2023-02-19T14:31:19.582Z,4.68
2023-02-19T14:34:19.499Z,3.92
2023-02-19T14:36:59.091Z,2.47
2023-02-19T14:39:38.855Z,17.75
2023-02-19T14:42:29.016Z,6.28
2023-02-19T14:45:01.782Z,4.13
2023-02-19T14:47:38.840Z,6.25
2023-02-19T14:50:36.641Z,6.78
2023-02-19T14:53:06.235Z,13.50
2023-02-19T14:55:40.385Z,2.88
2023-02-19T14:58:34.193Z,4.35
2023-02-19T15:01:01.730Z,3.97
2023-02-19T15:03:39.561Z,14.98
2023-02-19T15:06:14.494Z,5.95
2023-02-19T15:08:53.060Z,8.45
2023-02-19T15:11:25.535Z,17.40
2023-02-19T15:14:07.978Z,3.47
2023-02-19T15:16:37.011Z,2.40
2023-02-19T15:19:09.217Z,3.33
2023-02-19T15:21:47.193Z,10.50
2023-02-19T15:24:18.581Z,4.03
2023-02-19T15:26:51.724Z,7.72
2023-02-19T15:29:23.860Z,3.47
2023-02-19T15:31:58.343Z,7.20
2023-02-19T15:34:29.709Z,17.00
2023-02-19T15:37:09.377Z,6.35
2023-02-19T15:39:41.072Z,9.93
2023-02-19T15:42:15.222Z,16.92
2023-02-19T15:45:06.979Z,26.10
2023-02-19T15:48:08.837Z,13.27
2023-02-19T15:50:41.914Z,28.67
2023-02-19T15:53:21.313Z,15.43
2023-02-19T15:56:02.186Z,15.35
2023-02-19T15:58:53.084Z,21.27
2023-02-19T16:01:35.464Z,16.15
2023-02-19T16:04:04.218Z,10.70
2023-02-19T16:06:57.950Z,6.22
2023-02-19T16:09:38.847Z,8.85
2023-02-19T16:12:25.326Z,7.05
2023-02-19T16:14:53.868Z,9.60
2023-02-19T16:17:29.754Z,20.33
2023-02-19T16:20:03.752Z,25.80
2023-02-19T16:22:42.910Z,15.38
2023-02-19T16:25:30.493Z,10.25
2023-02-19T16:27:59.237Z,7.47
2023-02-19T16:30:35.394Z,5.55
2023-02-19T16:33:40.801Z,5.80
2023-02-19T16:36:35.536Z,34.70
2023-02-19T16:39:09.155Z,37.58
2023-02-19T16:41:51.620Z,21.38
2023-02-19T16:44:25.005Z,24.30
2023-02-19T16:47:06.888Z,33.87
2023-02-19T16:49:36.056Z,26.07
2023-02-19T16:52:05.514Z,19.57
2023-02-19T16:54:33.674Z,18.57
2023-02-19T16:57:01.423Z,23.80
2023-02-19T16:59:29.956Z,41.27
2023-02-19T17:01:58.147Z,141.53
2023-02-19T17:04:27.169Z,321.13
2023-02-19T17:06:55.977Z,94.27
2023-02-19T17:09:23.430Z,40.23
2023-02-19T17:11:51.114Z,29.60
2023-02-19T17:14:19.219Z,18.20
2023-02-19T17:16:47.748Z,27.07
2023-02-19T17:19:21.452Z,21.13
2023-02-19T17:21:49.874Z,22.00
2023-02-19T17:24:20.059Z,24.13
2023-02-19T17:26:48.848Z,30.57
2023-02-19T17:29:21.773Z,44.17
2023-02-19T17:31:52.778Z,64.20
2023-02-19T17:34:22.010Z,100.87
2023-02-19T17:36:54.321Z,98.33
2023-02-19T17:39:23.278Z,121.37
2023-02-19T17:41:51.422Z,87.50
2023-02-19T17:44:18.976Z,60.00
2023-02-19T17:46:49.600Z,47.83
2023-02-19T17:49:17.971Z,44.20
2023-02-19T17:51:46.553Z,36.27
2023-02-19T17:54:14.138Z,29.70
2023-02-19T17:56:46.415Z,29.03
2023-02-19T17:59:18.698Z,29.13
2023-02-19T18:01:47.484Z,25.17
2023-02-19T18:04:15.377Z,22.13
2023-02-19T18:06:43.509Z,65.23
2023-02-19T18:09:15.236Z,82.43
2023-02-19T18:11:46.865Z,60.87
2023-02-19T18:14:14.373Z,49.97
2023-02-19T18:16:51.147Z,45.10
2023-02-19T18:19:19.966Z,39.17
2023-02-19T18:21:48.819Z,43.73
2023-02-19T18:24:16.808Z,45.77
2023-02-19T18:26:45.173Z,45.27
2023-02-19T18:29:15.452Z,42.20
2023-02-19T18:31:44.378Z,41.73
2023-02-19T18:34:21.456Z,23.87
2023-02-19T18:36:51.200Z,23.07
2023-02-19T18:39:18.785Z,24.93
2023-02-19T18:41:51.520Z,26.10
2023-02-19T18:44:23.726Z,23.30
2023-02-19T18:46:51.832Z,19.83
2023-02-19T18:49:20.860Z,20.90
2023-02-19T18:51:49.842Z,21.67
2023-02-19T18:54:24.323Z,14.27
2023-02-19T18:56:54.499Z,13.87
2023-02-19T18:59:22.776Z,13.40
2023-02-19T19:01:53.944Z,13.20
2023-02-19T19:04:21.793Z,15.97
2023-02-19T19:06:50.949Z,25.63
2023-02-19T19:09:20.299Z,25.60
2023-02-19T19:11:48.181Z,44.13
2023-02-19T19:14:16.069Z,40.80
2023-02-19T19:16:44.821Z,50.10
2023-02-19T19:19:13.598Z,58.43
2023-02-19T19:21:41.444Z,39.87
2023-02-19T19:24:10.873Z,41.30
2023-02-19T19:26:45.996Z,54.63
2023-02-19T19:29:19.681Z,47.27
2023-02-19T19:31:48.668Z,69.00
2023-02-19T19:34:17.757Z,88.90
2023-02-19T19:36:46.485Z,74.50
2023-02-19T19:39:14.281Z,36.23
2023-02-19T19:41:42.261Z,81.63
2023-02-19T19:44:10.463Z,97.67
2023-02-19T19:46:46.669Z,84.17
2023-02-19T19:49:24.411Z,51.40
2023-02-19T19:51:57.638Z,47.07
2023-02-19T19:54:26.169Z,50.40
2023-02-19T19:56:55.180Z,58.50
2023-02-19T19:59:26.028Z,51.60
2023-02-19T20:02:02.832Z,46.90
2023-02-19T20:04:30.889Z,42.70
2023-02-19T20:07:02.160Z,34.87
2023-02-19T20:09:33.366Z,81.47
2023-02-19T20:12:05.473Z,50.50
2023-02-19T20:14:33.942Z,58.37
2023-02-19T20:17:10.864Z,43.13
2023-02-19T20:19:40.394Z,41.20
2023-02-19T20:22:08.843Z,40.30
2023-02-19T20:24:39.323Z,22.17
2023-02-19T20:27:06.995Z,18.17
2023-02-19T20:29:36.696Z,37.00
2023-02-19T20:32:06.576Z,27.17
2023-02-19T20:34:38.584Z,14.67
2023-02-19T20:37:08.999Z,17.73
2023-02-19T20:39:38.840Z,17.63
2023-02-19T20:42:08.770Z,21.33
2023-02-19T20:44:40.806Z,23.00
2023-02-19T20:47:12.436Z,16.37
2023-02-19T20:49:47.961Z,21.03
2023-02-19T20:52:18.174Z,42.07
2023-02-19T20:54:48.528Z,36.20
2023-02-19T20:57:17.827Z,25.17
2023-02-19T20:59:46.207Z,63.93
2023-02-19T21:02:27.717Z,63.93
2023-02-19T21:04:57.893Z,61.03
2023-02-19T21:07:29.977Z,53.03
2023-02-19T21:09:59.943Z,54.60
2023-02-19T21:12:33.934Z,63.00
2023-02-19T21:15:07.126Z,48.83
2023-02-19T21:17:34.709Z,38.50
2023-02-19T21:20:06.026Z,24.40
2023-02-19T21:22:45.665Z,19.83
2023-02-19T21:25:23.154Z,17.33
2023-02-19T21:28:13.296Z,15.70
2023-02-19T21:30:41.485Z,17.50
2023-02-19T21:33:10.101Z,17.67
2023-02-19T21:35:37.667Z,17.23
2023-02-19T21:38:05.575Z,14.60
2023-02-19T21:40:35.900Z,13.67
2023-02-19T21:43:29.525Z,15.03
2023-02-19T21:45:59.191Z,12.30
2023-02-19T21:48:26.940Z,10.20
2023-02-19T21:50:54.558Z,11.63
2023-02-19T21:53:24.206Z,12.17
2023-02-19T21:55:58.625Z,17.03
2023-02-19T21:58:28.702Z,11.07
2023-02-19T22:00:58.268Z,12.27
2023-02-19T22:03:28.178Z,16.17
2023-02-19T22:06:02.711Z,13.70
2023-02-19T22:08:30.336Z,13.83
2023-02-19T22:10:58.161Z,11.00
2023-02-19T22:13:26.262Z,9.23
2023-02-19T22:15:54.162Z,8.87
2023-02-19T22:18:21.878Z,8.53
2023-02-19T22:20:50.118Z,14.77
2023-02-19T22:23:18.009Z,8.10
2023-02-19T22:26:08.782Z,9.30
2023-02-19T22:28:36.269Z,10.70
2023-02-19T22:31:08.428Z,9.83
2023-02-19T22:33:37.067Z,10.20
2023-02-19T22:36:04.926Z,10.00
2023-02-19T22:38:32.446Z,7.67
2023-02-19T22:40:59.862Z,9.43
2023-02-19T22:43:27.857Z,7.87
2023-02-19T22:45:57.935Z,8.47
2023-02-19T22:48:30.022Z,9.10
2023-02-19T22:51:00.591Z,9.63
2023-02-19T22:53:28.089Z,8.67
2023-02-19T22:55:55.649Z,9.60
2023-02-19T22:58:24.394Z,9.23
2023-02-19T23:00:52.294Z,7.27
2023-02-19T23:03:25.978Z,8.33
2023-02-19T23:05:57.163Z,6.80
2023-02-19T23:08:24.844Z,8.60
2023-02-19T23:10:53.723Z,12.60
2023-02-19T23:13:22.892Z,17.47
2023-02-19T23:15:50.413Z,17.73
2023-02-19T23:18:17.894Z,16.20
2023-02-19T23:20:45.376Z,13.03
2023-02-19T23:23:13.943Z,10.70
2023-02-19T23:25:42.689Z,9.37
2023-02-19T23:28:10.214Z,7.80
2023-02-19T23:30:37.724Z,7.43
2023-02-19T23:33:05.390Z,11.40
2023-02-19T23:35:32.853Z,11.27
2023-02-19T23:38:01.839Z,11.97
2023-02-19T23:40:29.299Z,15.33
2023-02-19T23:42:56.883Z,10.70
2023-02-19T23:45:24.426Z,7.60
2023-02-19T23:47:51.837Z,8.20
2023-02-19T23:50:20.532Z,7.87
2023-02-19T23:52:48.325Z,7.80
2023-02-19T23:55:16.025Z,8.27
2023-02-19T23:57:44.671Z,10.57
